»·PEaware :: N206TL KSAN-KLAX

N206TL :: KSAN-KLAX

FLIGHT INFORMATION

Flight Status: Arrived
Operator: Privately registered:
United States
More flights under this callsign
Pilot: Nick L. (7253)
Aircraft: BOEING 747-400 (WINGLETS)
(B744)
More flights by this aircraft type
Origin: KSAN San Diego Intl-Lindbergh
United States
Destination: KLAX Los Angeles Intl
United States
More flights between these airports :: More routes between these airports
Route: +CWARD2 SLI
File this flight plan on PilotEdge
Remarks: SANN4R
Altitude:
(Current/Filed)
10,000ft
Speed:
(Current/Filed)
300kts
Departed: 02-May-18 09:08 AM
Arrived: 02-May-18 09:34 AM
Distance/Time
Traveled:
94nm/0:26
Distance/Time
To Go:
Arrived

Flight Plot

Page will automatically refresh every two minutes.

Flight plan parsing failed; only flown route is shown


Map Options




Map Legend


Flown Route
Filed Route
Departure Airport
Arrival Airport
Navaid (VOR, NDB)
Fix

Horizontal Profiles

Position Reports

Time Latitude Longitude Heading Altitude Ground
Speed
02-May-18 08:44 32.738082 -117.187032 324 28ft 0kts
02-May-18 08:45 32.738082 -117.187032 324 28ft 0kts
02-May-18 08:46 32.738082 -117.187032 324 28ft 0kts
02-May-18 08:47 32.738082 -117.187032 324 28ft 0kts
02-May-18 08:48 32.738082 -117.187032 324 28ft 0kts
02-May-18 08:49 32.738082 -117.187032 324 28ft 0kts
02-May-18 08:50 32.738082 -117.187032 324 28ft 0kts
02-May-18 08:51 32.738082 -117.187032 324 28ft 0kts
02-May-18 08:52 32.738082 -117.187032 324 28ft 0kts
02-May-18 08:53 32.738082 -117.187032 324 28ft 0kts
02-May-18 08:54 32.738082 -117.187032 324 28ft 0kts
02-May-18 08:55 32.738082 -117.187032 324 28ft 0kts
02-May-18 08:56 32.738082 -117.187032 324 28ft 0kts
02-May-18 08:57 32.738082 -117.187032 324 28ft 0kts
02-May-18 08:58 32.738082 -117.187032 324 28ft 0kts
02-May-18 08:59 32.738082 -117.187032 324 28ft 0kts
02-May-18 09:00 32.738082 -117.187032 324 28ft 0kts
02-May-18 09:01 32.738082 -117.187032 324 28ft 0kts
02-May-18 09:02 32.737703 -117.186879 125 28ft 11kts
02-May-18 09:03 32.734766 -117.184206 145 28ft 20kts
02-May-18 09:04 32.732278 -117.179685 105 28ft 20kts
02-May-18 09:05 32.731225 -117.175790 136 28ft 0kts
02-May-18 09:06 32.730297 -117.175329 210 28ft 14kts
02-May-18 09:07 32.733933 -117.190952 286 33ft 180kts
02-May-18 09:08 32.756860 -117.253658 307 3599ft 217kts
02-May-18 09:09 32.797160 -117.314354 305 5135ft 266kts
02-May-18 09:10 32.843739 -117.386909 306 8010ft 282kts
02-May-18 09:11 32.892574 -117.462261 307 9975ft 304kts
02-May-18 09:12 32.953421 -117.556962 307 9964ft 399kts
02-May-18 09:13 33.020947 -117.662632 307 9973ft 401kts
02-May-18 09:14 33.094318 -117.762213 319 9977ft 400kts
02-May-18 09:15 33.179908 -117.846557 326 9961ft 399kts
02-May-18 09:16 33.283084 -117.881981 357 9748ft 367kts
02-May-18 09:17 33.378936 -117.876002 2 9150ft 316kts
02-May-18 09:18 33.458433 -117.869387 2 8794ft 266kts
02-May-18 09:19 33.532377 -117.863264 2 7525ft 267kts
02-May-18 09:20 33.605994 -117.857546 2 6989ft 264kts
02-May-18 09:21 33.679468 -117.851897 2 6989ft 264kts
02-May-18 09:22 33.752897 -117.846283 2 6989ft 264kts
02-May-18 09:23 33.824854 -117.862185 342 6602ft 268kts
02-May-18 09:24 33.896090 -117.888157 342 5122ft 266kts
02-May-18 09:25 33.959807 -117.917980 309 4979ft 234kts
02-May-18 09:26 33.977265 -117.992399 274 4990ft 233kts
02-May-18 09:27 33.969929 -118.067823 262 4993ft 220kts
02-May-18 09:28 33.962004 -118.142020 262 3995ft 220kts
02-May-18 09:29 33.954621 -118.214115 261 2856ft 203kts
02-May-18 09:30 33.948550 -118.273444 262 1915ft 155kts
02-May-18 09:31 33.943406 -118.323722 261 1099ft 149kts
02-May-18 09:32 33.938346 -118.373433 260 291ft 147kts
02-May-18 09:33 33.934829 -118.407422 262 139ft 28kts
02-May-18 09:34 33.933195 -118.412527 189 139ft 1kts
02-May-18 09:35 33.933181 -118.410854 75 139ft 34kts
02-May-18 09:36 33.934842 -118.395170 82 139ft 57kts
02-May-18 09:37 33.935249 -118.381297 182 139ft 22kts
02-May-18 09:38 33.933960 -118.382233 224 139ft 0kts
02-May-18 09:39 33.933960 -118.382233 224 139ft 0kts
02-May-18 09:40 33.933960 -118.382233 224 139ft 0kts
02-May-18 09:41 33.933960 -118.382233 224 139ft 0kts
02-May-18 09:42 33.933960 -118.382233 224 139ft 0kts
02-May-18 09:43 33.933960 -118.382233 224 139ft 0kts
02-May-18 09:44 33.933960 -118.382233 224 139ft 0kts
02-May-18 09:45 33.933960 -118.382233 224 139ft 0kts

Navigation Log

Ident Type
Flight plan parsing failed, navigation log unavailable